Time;durP1;ratioP1;P1;durP2;ratioP2;P2;SDS_P1;SDS_P2;PMS_P1;PMS_P2;Temp;Humidity;BMP_temperature;BMP_pressure;BME280_temperature;BME280_humidity;BME280_pressure;Samples;Min_cycle;Max_cycle;Signal;HPM_P1;HPM_P2
2023/01/05 15:19:39;;;;;;;35.97;9.02;;;11.20;97.00;;;10.29;82.15;101052.84;5070315;27;1273203;-81
2023/01/05 15:22:29;;;;;;;41.03;9.35;;;11.30;96.80;;;10.34;81.52;101039.75;5101952;28;20070;-83
2023/01/05 15:38:47;;;;;;;31.33;7.93;;;12.20;91.40;;;11.17;73.62;101027.19;6189584;23;20029;-80
2023/01/05 15:41:19;;;;;;;31.92;7.30;;;12.30;90.40;;;11.20;72.12;101026.81;6192262;23;20268;-81
2023/01/05 15:43:47;;;;;;;24.20;7.22;;;12.30;89.60;;;11.27;71.73;101030.31;6213394;23;20521;-81
2023/01/05 15:46:23;;;;;;;28.17;7.95;;;12.40;89.10;;;11.33;71.63;101023.34;6218162;23;20048;-81
2023/01/05 15:48:53;;;;;;;24.65;6.93;;;12.50;89.20;;;11.42;71.95;101026.63;6183742;23;20033;-81
2023/01/05 15:51:26;;;;;;;23.60;7.43;;;12.50;89.00;;;11.45;71.27;101020.88;6174220;23;20032;-82
2023/01/05 15:53:58;;;;;;;24.40;7.95;;;12.60;88.70;;;11.57;73.30;101024.63;6159324;23;20021;-81
2023/01/05 15:56:30;;;;;;;21.77;6.50;;;12.70;89.90;;;11.59;71.50;101031.38;6157677;23;20024;-81
2023/01/05 15:58:58;;;;;;;31.92;7.03;;;12.70;88.50;;;11.58;70.89;101039.63;6155975;23;20403;-81
2023/01/05 16:01:26;;;;;;;28.88;7.03;;;12.80;88.10;;;11.61;70.64;101039.19;6158789;23;20021;-82
2023/01/05 16:04:06;;;;;;;26.63;7.28;;;12.80;88.10;;;11.64;70.65;101041.47;6157842;23;20443;-81
2023/01/05 16:06:38;;;;;;;23.75;6.88;;;12.80;87.70;;;11.66;70.05;101034.06;6152705;23;20141;-81
2023/01/05 16:09:11;;;;;;;;;;;12.80;87.00;;;11.64;69.92;101035.31;6155838;23;20021;-81
2023/01/05 16:11:42;;;;;;;27.88;7.18;;;13.10;87.30;;;11.69;70.18;101043.53;6154599;23;20313;-81
2023/01/05 16:14:18;;;;;;;31.10;6.68;;;12.90;87.60;;;11.75;70.28;101038.19;6154899;23;20056;-81
2023/01/05 16:16:52;;;;;;;29.63;6.60;;;12.90;87.50;;;11.78;69.27;101045.78;6153420;23;20048;-81
2023/01/05 16:19:26;;;;;;;30.48;6.95;;;12.90;86.90;;;11.77;69.38;101038.00;6155390;23;20025;-81
2023/01/05 16:21:59;;;;;;;32.45;7.15;;;12.90;86.90;;;11.78;69.72;101027.09;6154536;23;20092;-81
2023/01/05 16:24:36;;;;;;;33.05;7.43;;;12.90;87.10;;;11.83;69.75;101035.34;6155320;23;20040;-81
2023/01/05 16:27:06;;;;;;;32.40;7.35;;;12.90;87.10;;;11.86;69.89;101036.78;6155114;23;20025;-81
2023/01/05 16:29:38;;;;;;;28.02;6.35;;;13.00;87.20;;;11.89;69.66;101038.22;6154786;23;20025;-81
2023/01/05 16:32:35;;;;;;;29.30;7.35;;;13.10;87.10;;;11.80;69.86;101046.41;6152971;23;20045;-81
2023/01/05 16:35:33;;;;;;;32.97;7.70;;;13.00;87.10;;;11.83;69.91;101038.00;6153865;23;20075;-81
2023/01/05 16:38:16;;;;;;;38.10;8.77;;;13.00;86.90;;;11.82;69.58;101041.72;6147978;23;20363;-81
2023/01/05 16:41:15;;;;;;;25.10;6.78;;;13.00;86.80;;;11.83;69.73;101037.19;6146800;23;20097;-81
2023/01/05 16:43:51;;;;;;;33.70;6.85;;;13.00;86.80;;;11.84;69.58;101036.97;6098095;23;20104;-81
2023/01/05 16:46:35;;;;;;;28.92;6.72;;;13.00;86.90;;;11.83;70.16;101029.19;6145834;23;20120;-81
2023/01/05 16:49:39;;;;;;;37.13;7.97;;;13.00;87.10;;;11.81;70.43;101033.88;6148387;23;20048;-81
2023/01/05 16:52:09;;;;;;;32.80;8.25;;;13.00;87.50;;;11.78;70.37;101028.94;6148687;23;20030;-81
2023/01/05 16:54:40;;;;;;;31.63;6.82;;;13.00;87.50;;;11.78;70.72;101029.75;6148336;23;20025;-81
2023/01/05 16:57:40;;;;;;;36.10;7.45;;;13.00;87.60;;;11.79;70.54;101031.41;6146763;23;20021;-81
2023/01/05 17:00:37;;;;;;;37.03;7.55;;;13.00;87.70;;;11.78;70.88;101026.28;6147500;23;20029;-81
2023/01/05 17:03:29;;;;;;;33.42;7.57;;;13.00;87.90;;;11.79;71.14;101026.06;6147562;23;20025;-81
2023/01/05 17:05:59;;;;;;;45.42;9.32;;;13.00;87.90;;;11.76;71.38;101014.94;6147281;23;20101;-81
2023/01/05 17:08:30;;;;;;;39.38;9.10;;;13.00;88.10;;;11.72;71.90;101014.56;6147797;23;20027;-81
2023/01/05 17:10:59;;;;;;;39.17;9.02;;;12.90;88.30;;;11.70;72.02;101011.25;6146294;23;20053;-81
2023/01/05 17:13:43;;;;;;;41.70;8.10;;;12.90;88.60;;;11.71;72.38;101012.91;6146410;23;20026;-81
2023/01/05 17:16:11;;;;;;;36.20;7.97;;;12.90;88.70;;;11.69;72.56;101001.59;6147658;23;20548;-81
2023/01/05 17:18:39;;;;;;;38.60;8.93;;;12.90;88.70;;;11.72;72.34;101003.06;6146713;23;20028;-83
2023/01/05 17:21:08;;;;;;;39.47;8.93;;;12.90;88.70;;;11.74;72.60;101004.47;6147675;23;20029;-81
2023/01/05 17:23:45;;;;;;;30.65;8.63;;;12.90;88.80;;;11.77;72.24;100996.06;6149251;23;20049;-91
2023/01/05 17:26:17;;;;;;;49.78;9.88;;;12.90;88.80;;;11.75;72.55;100999.94;6150893;23;20018;-81
2023/01/05 17:28:46;;;;;;;35.22;8.27;;;13.10;88.90;;;11.71;72.76;100996.88;6150922;23;20052;-81
2023/01/05 17:31:13;;;;;;;46.03;9.95;;;12.90;88.90;;;11.73;72.74;100992.16;6151330;23;20076;-82
2023/01/05 17:33:40;;;;;;;42.72;9.93;;;13.00;88.80;;;11.68;72.95;100986.59;6151179;23;20096;-81
2023/01/05 17:36:08;;;;;;;39.22;8.77;;;12.90;88.90;;;11.68;73.14;100997.28;6150698;23;20025;-81
2023/01/05 17:38:35;;;;;;;40.25;8.68;;;12.90;89.10;;;11.68;73.10;100994.63;6151463;23;20120;-81
2023/01/05 17:41:02;;;;;;;34.25;8.80;;;12.90;89.30;;;11.69;73.24;100990.91;6150822;23;20025;-82
2023/01/05 17:43:29;;;;;;;35.40;7.30;;;12.90;89.30;;;11.66;73.49;100987.81;6151086;23;20025;-81
2023/01/05 17:45:58;;;;;;;46.67;8.45;;;12.90;89.50;;;11.68;73.48;100991.13;6150842;23;20028;-79
2023/01/05 17:48:25;;;;;;;40.40;8.43;;;12.90;89.40;;;11.65;73.40;100991.53;6150320;23;20024;-79
2023/01/05 17:50:52;;;;;;;35.67;8.02;;;12.90;89.50;;;11.63;73.64;100998.94;6150996;23;20756;-79
2023/01/05 17:53:19;;;;;;;29.52;7.05;;;12.90;89.50;;;11.65;73.89;100999.53;6151300;23;20032;-80
2023/01/05 17:55:46;;;;;;;30.00;7.13;;;12.80;89.50;;;11.61;74.02;100996.44;6150157;23;20037;-81
2023/01/05 17:58:14;;;;;;;38.35;7.80;;;12.80;89.60;;;11.60;74.49;100986.78;6151031;23;20032;-81
2023/01/05 18:00:44;;;;;;;28.70;7.50;;;12.80;89.90;;;11.65;74.22;100994.19;6151037;23;20047;-81
2023/01/05 18:03:15;;;;;;;33.90;6.90;;;12.80;89.80;;;11.65;74.40;101004.88;6151155;23;20045;-80
2023/01/05 18:05:44;;;;;;;40.25;8.45;;;12.90;90.00;;;11.70;74.36;100995.22;6150631;23;20064;-80
2023/01/05 18:08:11;;;;;;;46.55;9.43;;;12.90;90.00;;;11.70;74.28;100997.88;6151070;23;20017;-80
2023/01/05 18:10:39;;;;;;;31.70;8.43;;;12.90;90.10;;;11.66;74.52;100993.97;6151144;23;20029;-80
2023/01/05 18:13:08;;;;;;;42.25;11.07;;;12.80;90.00;;;11.64;74.72;100987.22;6150590;23;20025;-80
2023/01/05 18:15:36;;;;;;;37.58;10.15;;;12.80;90.20;;;11.66;74.71;100982.47;6150691;23;20032;-80
2023/01/05 18:18:03;;;;;;;36.67;10.55;;;12.80;90.20;;;11.65;74.80;100978.97;6150782;23;20025;-80
2023/01/05 18:20:31;;;;;;;38.65;8.77;;;12.80;90.30;;;11.59;75.08;100979.81;6151083;23;20047;-81
2023/01/05 18:22:59;;;;;;;36.75;9.10;;;12.80;90.40;;;11.60;74.98;100974.25;6151348;23;20052;-82
2023/01/05 18:25:26;;;;;;;41.08;8.23;;;12.80;90.40;;;11.60;74.90;100970.75;6150616;23;20017;-81
2023/01/05 18:27:53;;;;;;;32.30;7.35;;;12.80;90.40;;;11.60;75.11;100968.91;6150710;23;20032;-81
2023/01/05 18:30:20;;;;;;;35.13;7.75;;;12.80;90.40;;;11.61;74.98;100975.06;6148498;23;20025;-81
2023/01/05 18:32:47;;;;;;;34.22;8.05;;;12.80;90.30;;;11.64;74.78;100963.16;6149157;23;20033;-80
2023/01/05 18:35:14;;;;;;;24.70;7.03;;;12.80;90.20;;;11.62;74.76;100959.88;6150631;23;20018;-80
2023/01/05 18:37:43;;;;;;;31.33;8.02;;;12.80;90.30;;;11.59;75.07;100964.59;6150409;23;20378;-81
2023/01/05 18:40:12;;;;;;;27.17;7.10;;;12.80;90.60;;;11.61;75.20;100959.03;6151052;23;20029;-78
2023/01/05 18:42:39;;;;;;;30.27;7.82;;;12.80;90.40;;;11.65;75.17;100967.47;6149897;23;20025;-78
2023/01/05 18:45:08;;;;;;;27.15;7.85;;;12.80;90.50;;;11.63;75.09;100975.72;6148884;23;20031;-86
2023/01/05 18:47:36;;;;;;;36.90;9.85;;;12.80;90.60;;;11.63;75.33;100966.88;6146741;23;20124;-86
2023/01/05 18:50:04;;;;;;;31.90;9.35;;;13.00;90.80;;;11.61;75.50;100969.72;6147229;23;20021;-86
2023/01/05 18:52:33;;;;;;;30.98;8.05;;;12.80;90.80;;;11.61;75.73;100961.72;6147118;23;20040;-86
2023/01/05 18:55:02;;;;;;;27.23;7.75;;;12.80;91.00;;;11.58;76.10;100956.81;6147464;23;20451;-85
2023/01/05 18:57:30;;;;;;;27.13;7.57;;;12.80;91.00;;;11.61;75.95;100964.38;6147193;23;20032;-86
2023/01/05 18:59:57;;;;;;;28.75;7.90;;;12.80;91.00;;;11.60;76.18;100957.41;6147709;23;20076;-86
2023/01/05 19:02:24;;;;;;;27.13;8.15;;;12.80;91.20;;;11.61;76.26;100953.69;6146782;23;20021;-86
2023/01/05 19:04:52;;;;;;;27.08;9.05;;;12.80;91.30;;;11.59;76.21;100958.44;6147290;23;20022;-86
2023/01/05 19:07:19;;;;;;;35.20;10.65;;;12.80;91.20;;;11.56;76.67;100956.16;6147144;23;20462;-86
2023/01/05 19:09:46;;;;;;;24.90;9.13;;;12.80;91.60;;;11.52;76.95;100962.97;6147479;23;20032;-86
2023/01/05 19:12:15;;;;;;;25.20;10.13;;;12.70;91.70;;;11.51;77.17;100956.78;6147392;23;20022;-86
2023/01/05 19:14:42;;;;;;;23.40;9.18;;;12.80;91.90;;;11.53;77.12;100952.06;6146331;23;20020;-85
2023/01/05 19:17:09;;;;;;;28.27;10.02;;;12.80;91.90;;;11.56;77.04;100956.97;6147194;23;20096;-85
2023/01/05 19:19:36;;;;;;;26.60;10.38;;;12.80;91.80;;;11.58;77.10;100952.28;6147664;23;20463;-85
2023/01/05 19:22:04;;;;;;;29.70;11.40;;;12.80;92.00;;;11.59;77.31;100951.25;6145369;23;20031;-86
2023/01/05 19:24:31;;;;;;;28.30;10.57;;;12.80;92.00;;;11.56;77.62;100945.47;6146627;23;20275;-86
2023/01/05 19:26:58;;;;;;;30.52;11.00;;;12.80;92.20;;;11.56;77.49;100950.81;6146550;23;20025;-86
2023/01/05 19:29:27;;;;;;;31.95;12.40;;;12.80;92.10;;;11.57;77.56;100944.47;6147593;23;20047;-86
2023/01/05 19:31:54;;;;;;;24.73;11.20;;;12.80;92.20;;;11.58;77.84;100948.78;6145301;23;20037;-86
2023/01/05 19:34:21;;;;;;;30.77;10.90;;;12.80;92.30;;;11.57;77.74;100947.97;6147309;23;20025;-85
2023/01/05 19:36:48;;;;;;;28.10;10.63;;;12.80;92.40;;;11.59;77.76;100945.09;6147062;23;20526;-85
2023/01/05 19:39:19;;;;;;;26.02;10.13;;;12.80;92.30;;;11.60;77.78;100944.03;6146305;23;20017;-85
2023/01/05 19:41:50;;;;;;;24.27;11.20;;;12.80;92.40;;;11.59;78.08;100940.56;6145380;23;20025;-86
2023/01/05 19:44:20;;;;;;;28.60;10.57;;;12.80;92.60;;;11.58;78.20;100940.78;6147206;23;20049;-85
2023/01/05 19:46:51;;;;;;;21.58;10.60;;;12.80;92.80;;;11.57;78.35;100944.47;6146915;23;20021;-86
2023/01/05 19:49:21;;;;;;;24.45;10.52;;;12.80;92.60;;;11.58;78.19;100938.91;6147336;23;20021;-85
2023/01/05 19:51:49;;;;;;;24.33;10.82;;;12.90;92.80;;;11.60;78.50;100931.50;6146714;23;20021;-85
2023/01/05 19:54:17;;;;;;;26.10;10.73;;;12.80;92.80;;;11.65;78.32;100936.22;6147270;23;20025;-83
2023/01/05 19:56:46;;;;;;;24.30;11.10;;;12.80;92.80;;;11.69;77.94;100945.47;6146352;23;20029;-82
2023/01/05 19:59:16;;;;;;;27.58;10.57;;;12.90;92.80;;;11.70;78.11;100935.63;6147158;23;20021;-83
2023/01/05 20:01:44;;;;;;;24.48;10.95;;;13.10;92.80;;;11.70;78.14;100936.44;6146924;23;20021;-94
2023/01/05 20:04:13;;;;;;;25.45;11.02;;;12.90;92.90;;;11.72;78.67;100938.91;6147095;23;20445;-86
2023/01/05 20:06:44;;;;;;;22.42;10.90;;;12.90;93.30;;;11.68;78.87;100938.50;6144880;23;20025;-85
2023/01/05 20:09:15;;;;;;;27.23;10.20;;;12.90;93.30;;;11.71;78.90;100945.28;6145171;23;20044;-85
2023/01/05 20:11:46;;;;;;;27.98;11.60;;;12.90;93.40;;;11.69;79.06;100929.44;6148488;23;20065;-85
2023/01/05 20:14:17;;;;;;;24.38;10.45;;;12.90;93.60;;;11.69;79.11;100929.44;6148130;23;20025;-85
2023/01/05 20:16:49;;;;;;;25.92;11.45;;;12.90;93.60;;;11.69;79.27;100934.78;6148462;23;20730;-85
2023/01/05 20:19:18;;;;;;;;;;;12.90;93.80;;;11.71;79.19;100937.25;6149856;23;20048;-85
2023/01/05 20:21:45;;;;;;;23.42;11.77;;;12.90;93.70;;;11.69;79.08;100940.13;6149446;23;19939;-86
2023/01/05 20:24:16;;;;;;;27.90;11.82;;;12.90;93.60;;;11.71;79.41;100929.25;6148744;23;20096;-85
2023/01/05 20:26:45;;;;;;;22.17;11.25;;;12.90;93.60;;;11.74;79.39;100931.50;6147714;23;20478;-85
2023/01/05 20:29:13;;;;;;;20.95;10.50;;;12.90;93.70;;;11.75;79.21;100927.78;6149169;23;20025;-85
2023/01/05 20:31:44;;;;;;;23.15;11.95;;;13.00;93.80;;;11.77;79.33;100931.09;6146486;23;20025;-85
2023/01/05 20:34:15;;;;;;;22.70;11.20;;;12.90;93.80;;;11.78;79.22;100922.88;6148821;23;20026;-85
2023/01/05 20:36:44;;;;;;;;;;;12.90;93.90;;;11.73;79.70;100922.66;6149132;23;20021;-85
2023/01/05 20:39:14;;;;;;;23.30;11.55;;;12.90;94.10;;;11.67;80.41;100917.34;6148366;23;19947;-84
2023/01/05 20:41:45;;;;;;;23.30;10.68;;;12.90;94.50;;;11.66;80.34;100924.50;6148451;23;20022;-85
2023/01/05 20:44:14;;;;;;;20.42;11.20;;;12.80;94.40;;;11.69;80.30;100912.59;6148288;23;20465;-85
2023/01/05 20:46:45;;;;;;;22.55;11.48;;;12.80;94.40;;;11.70;80.24;100919.59;6147652;23;20482;-85
2023/01/05 20:49:13;;;;;;;22.48;12.13;;;13.00;94.40;;;11.71;80.22;100918.56;6148794;23;20025;-85
2023/01/05 20:51:41;;;;;;;26.45;11.77;;;12.90;94.50;;;11.63;80.79;100908.91;6148143;23;20112;-85
2023/01/05 20:54:10;;;;;;;24.25;11.57;;;12.80;94.40;;;11.69;80.37;100913.41;6148408;23;20120;-85
2023/01/05 20:56:39;;;;;;;20.15;11.43;;;12.80;94.30;;;11.68;80.31;100906.44;6148388;23;20022;-85
2023/01/05 20:59:10;;;;;;;20.33;10.27;;;12.90;94.40;;;11.67;80.64;100912.00;6148721;23;20110;-85
2023/01/05 21:01:37;;;;;;;20.40;11.15;;;12.90;94.60;;;11.68;80.79;100910.97;6147097;23;20124;-85
2023/01/05 21:04:05;;;;;;;21.25;11.60;;;12.90;94.60;;;11.68;80.64;100914.47;6147682;23;20029;-85
2023/01/05 21:06:33;;;;;;;22.67;12.27;;;12.90;94.50;;;11.70;80.78;100925.75;6148075;23;20157;-85
2023/01/05 21:09:01;;;;;;;21.52;11.60;;;12.90;94.60;;;11.69;81.10;100918.75;6148291;23;20025;-85
2023/01/05 21:11:30;;;;;;;19.75;11.38;;;12.90;94.80;;;11.70;81.30;100919.59;6148570;23;20359;-85
2023/01/05 21:13:58;;;;;;;18.20;11.20;;;12.90;95.00;;;11.70;81.18;100920.41;6147534;23;20029;-85
2023/01/05 21:16:29;;;;;;;23.00;12.32;;;12.90;95.00;;;11.70;81.09;100915.06;6148132;23;20351;-86
2023/01/05 21:18:56;;;;;;;22.95;12.38;;;12.90;95.10;;;11.71;81.17;100916.72;6148577;23;20024;-85
2023/01/05 21:21:26;;;;;;;19.90;11.77;;;12.90;95.00;;;11.73;81.52;100919.19;6147692;23;20092;-85
2023/01/05 21:23:54;;;;;;;19.40;12.00;;;12.90;95.20;;;11.72;81.13;100918.38;6148047;23;20064;-85
2023/01/05 21:26:22;;;;;;;22.38;12.73;;;12.90;95.20;;;11.74;81.34;100910.13;6145919;23;20021;-85
2023/01/05 21:28:53;;;;;;;23.38;13.32;;;12.90;95.30;;;11.71;81.52;100906.03;6146364;23;20030;-85
2023/01/05 21:31:23;;;;;;;21.50;13.63;;;12.90;95.40;;;11.70;81.87;100907.03;6148362;23;20025;-84
2023/01/05 21:33:51;;;;;;;21.92;13.20;;;12.90;95.60;;;11.69;81.81;100913.41;6147684;23;20029;-85
2023/01/05 21:36:21;;;;;;;27.50;14.18;;;12.90;95.60;;;11.71;81.71;100908.72;6148098;23;20439;-85
2023/01/05 21:38:51;;;;;;;27.00;14.48;;;12.90;95.40;;;11.71;81.83;100906.03;6147103;23;20095;-85
2023/01/05 21:42:38;;;;;;;25.77;14.33;;;12.90;95.60;;;11.72;81.81;100906.84;6147826;23;20072;-83
2023/01/05 21:44:09;;;;;;;24.73;13.63;;;12.90;95.90;;;11.74;82.09;100907.47;6147739;23;20036;-84
2023/01/05 21:46:38;;;;;;;27.90;14.13;;;12.90;95.90;;;11.70;82.22;100907.03;6145927;23;20018;-83
2023/01/05 21:49:05;;;;;;;25.23;14.68;;;12.90;96.00;;;11.67;82.33;100912.00;6148415;23;20025;-83
2023/01/05 21:57:05;;;;;;;26.33;14.25;;;12.90;95.80;;;11.75;81.90;100901.06;6146193;23;20553;-84
2023/01/05 21:59:34;;;;;;;24.50;14.00;;;12.90;95.60;;;11.79;81.53;100913.81;6148642;23;20096;-84
2023/01/05 22:02:01;;;;;;;19.90;13.73;;;12.90;95.40;;;11.80;81.46;100899.41;6149597;23;20028;-84
2023/01/05 22:04:28;;;;;;;20.33;13.00;;;13.00;95.40;;;11.83;81.58;100888.34;6148887;23;20455;-84
2023/01/05 22:06:56;;;;;;;24.58;14.00;;;13.00;95.40;;;11.88;81.29;100900.28;6150388;23;20025;-84
2023/01/05 22:09:23;;;;;;;23.80;13.60;;;13.00;95.10;;;11.82;81.54;100894.72;6149770;23;20025;-85
2023/01/05 22:11:50;;;;;;;21.38;13.52;;;13.00;95.20;;;11.82;81.86;100894.72;6150416;23;20025;-85
2023/01/05 22:14:17;;;;;;;24.42;14.52;;;13.00;95.60;;;11.80;82.16;100894.06;6151071;23;20029;-84
2023/01/05 22:16:48;;;;;;;22.10;13.88;;;13.00;95.80;;;11.79;81.87;100887.09;6150254;23;20092;-84
2023/01/05 22:19:18;;;;;;;23.05;15.25;;;13.00;95.50;;;11.76;81.81;100890.19;6151495;23;20064;-84
2023/01/05 22:21:46;;;;;;;21.48;14.52;;;13.00;95.60;;;11.77;82.24;100878.47;6150831;23;20068;-84
2023/01/05 22:24:13;;;;;;;24.20;13.55;;;12.90;95.70;;;11.80;82.19;100883.38;6150943;23;20084;-84
2023/01/05 22:26:40;;;;;;;22.48;13.48;;;12.90;95.80;;;11.83;81.85;100885.69;6149938;23;20021;-84
2023/01/05 22:29:07;;;;;;;23.00;14.40;;;13.00;95.60;;;11.83;81.68;100884.88;6148365;23;20356;-85
2023/01/05 22:31:35;;;;;;;23.10;14.13;;;13.00;95.50;;;11.82;81.88;100886.72;6150755;23;20021;-85
2023/01/05 22:34:04;;;;;;;19.75;12.98;;;13.00;95.60;;;11.82;81.59;100884.03;6150164;23;20630;-85
2023/01/05 22:36:46;;;;;;;20.92;13.63;;;13.00;95.30;;;11.86;81.65;100881.78;6150269;23;20096;-84
2023/01/05 22:39:22;;;;;;;24.23;13.02;;;13.00;95.40;;;11.83;81.77;100883.00;6149171;23;20025;-84
2023/01/05 22:41:50;;;;;;;21.85;13.10;;;13.00;95.40;;;11.82;81.89;100881.38;6150589;23;20100;-85
2023/01/05 22:44:17;;;;;;;19.50;12.10;;;13.00;95.60;;;11.83;81.79;100883.00;6150745;23;20032;-84
2023/01/05 22:46:55;;;;;;;20.05;12.25;;;13.00;95.50;;;11.84;81.74;100884.66;6147722;23;20021;-85
2023/01/05 22:49:29;;;;;;;19.90;13.15;;;13.00;95.60;;;11.85;81.54;100867.56;6149015;23;20022;-84
2023/01/05 22:51:56;;;;;;;18.80;12.73;;;13.10;95.40;;;11.87;81.59;100877.25;6150694;23;20025;-84
2023/01/05 22:54:23;;;;;;;20.90;12.80;;;13.00;95.40;;;11.89;81.62;100877.84;6150973;23;20030;-85
2023/01/05 22:56:53;;;;;;;20.73;12.52;;;13.00;95.50;;;11.86;81.40;100881.78;6149309;23;20024;-85
2023/01/05 22:59:21;;;;;;;18.27;12.15;;;13.00;95.20;;;11.89;81.44;100877.84;6148917;23;20407;-85
2023/01/05 23:01:48;;;;;;;19.42;12.50;;;13.00;95.20;;;11.85;81.56;100875.59;6148773;23;20029;-85
2023/01/05 23:04:18;;;;;;;22.65;12.27;;;13.00;95.20;;;11.89;81.55;100869.84;6149840;23;20025;-85
2023/01/05 23:06:47;;;;;;;17.70;12.35;;;13.00;95.20;;;11.88;81.48;100870.88;6149052;23;20637;-85
2023/01/05 23:09:16;;;;;;;21.80;12.13;;;13.00;95.20;;;11.89;81.32;100867.97;6150552;23;20033;-85
2023/01/05 23:11:45;;;;;;;23.13;12.68;;;13.00;95.20;;;11.89;80.91;100861.81;6150558;23;20025;-85
2023/01/05 23:14:13;;;;;;;19.35;11.73;;;13.00;95.00;;;11.86;81.06;100860.41;6148974;23;20072;-85
2023/01/05 23:16:41;;;;;;;19.13;12.75;;;13.00;95.10;;;11.85;81.58;100864.91;6147782;23;20025;-85
2023/01/05 23:19:08;;;;;;;21.38;12.05;;;13.00;95.40;;;11.84;81.28;100857.91;6149945;23;20021;-85
2023/01/05 23:21:38;;;;;;;21.02;12.27;;;13.00;95.30;;;11.83;81.26;100868.81;6150425;23;20124;-85
2023/01/05 23:24:08;;;;;;;17.73;11.88;;;13.00;95.20;;;11.81;81.53;100866.34;6150798;23;20017;-85
2023/01/05 23:26:35;;;;;;;20.20;11.70;;;13.00;95.40;;;11.82;81.49;100870.69;6149819;23;20490;-84
2023/01/05 23:29:02;;;;;;;17.17;10.98;;;13.20;95.40;;;11.81;81.43;100873.53;6150702;23;20443;-85
2023/01/05 23:31:30;;;;;;;19.77;10.40;;;13.00;95.40;;;11.80;81.41;100872.69;6150410;23;20027;-84
2023/01/05 23:33:57;;;;;;;17.35;9.48;;;13.00;95.40;;;11.79;81.41;100871.06;6150162;23;20029;-85
2023/01/05 23:36:25;;;;;;;16.80;10.00;;;13.00;95.40;;;11.74;81.64;100873.53;6149612;23;20028;-84
2023/01/05 23:38:52;;;;;;;13.93;9.43;;;12.90;95.40;;;11.73;81.56;100866.56;6150414;23;20021;-85
2023/01/05 23:41:21;;;;;;;17.05;10.30;;;12.90;95.40;;;11.72;81.75;100856.91;6146775;23;20348;-85
2023/01/05 23:43:48;;;;;;;14.30;9.30;;;12.90;95.40;;;11.72;81.86;100853.41;6150114;23;20018;-85
2023/01/05 23:46:19;;;;;;;11.90;7.63;;;12.90;95.50;;;11.68;81.78;100858.34;6149217;23;20018;-85
2023/01/05 23:48:46;;;;;;;14.27;7.55;;;12.90;95.50;;;11.68;81.79;100861.03;6149801;23;20029;-84
2023/01/05 23:51:15;;;;;;;14.90;7.53;;;12.90;95.40;;;11.67;81.66;100854.03;6148640;23;20036;-85
2023/01/05 23:53:45;;;;;;;14.07;6.72;;;12.90;95.30;;;11.69;81.35;100845.81;6147816;23;20018;-85
2023/01/05 23:56:14;;;;;;;12.98;6.80;;;13.00;95.30;;;11.71;81.23;100851.75;6149330;23;20116;-83
2023/01/05 23:58:43;;;;;;;13.13;6.45;;;12.90;95.00;;;11.73;80.80;100853.19;6151686;23;20421;-84
